Time;durP1;ratioP1;P1;durP2;ratioP2;P2;SDS_P1;SDS_P2;PMS_P1;PMS_P2;Temp;Humidity;BMP_temperature;BMP_pressure;BME280_temperature;BME280_humidity;BME280_pressure;Samples;Min_cycle;Max_cycle;Signal;HPM_P1;HPM_P2
2022/01/06 00:01:05;;;;;;;9.05;3.05;;;5.30;99.90;;;;;;5023716;28;20622;-88
2022/01/06 00:03:33;;;;;;;6.10;3.40;;;5.50;99.90;;;;;;5024143;28;20213;-88
2022/01/06 00:06:03;;;;;;;8.85;3.00;;;5.20;99.90;;;;;;5024894;28;20205;-87
2022/01/06 00:10:59;;;;;;;7.97;3.10;;;5.70;99.90;;;;;;4954615;29;20702;-89
2022/01/06 00:13:33;;;;;;;9.60;4.68;;;5.70;99.90;;;;;;4957090;29;20262;-88
2022/01/06 00:16:10;;;;;;;6.38;3.45;;;5.30;99.90;;;;;;4956396;29;20204;-89
2022/01/06 00:23:07;;;;;;;9.95;3.60;;;5.50;99.90;;;;;;4956342;29;20200;-89
2022/01/06 00:24:23;;;;;;;9.75;3.10;;;5.30;99.90;;;;;;4979149;28;20245;-88
2022/01/06 00:26:50;;;;;;;9.85;3.30;;;5.80;99.90;;;;;;4980142;28;20202;-87
2022/01/06 00:29:18;;;;;;;8.48;3.45;;;5.90;99.90;;;;;;4978852;28;20314;-87
2022/01/06 00:31:46;;;;;;;7.38;3.05;;;5.70;99.90;;;;;;4967881;29;20279;-88
2022/01/06 00:34:16;;;;;;;10.10;3.13;;;5.60;99.90;;;;;;4958342;29;20230;-88
2022/01/06 00:36:44;;;;;;;8.63;3.85;;;5.60;99.90;;;;;;4958912;29;20656;-89
2022/01/06 00:39:12;;;;;;;5.97;2.60;;;5.80;99.90;;;;;;4958681;29;20712;-88
2022/01/06 00:41:39;;;;;;;11.45;4.22;;;5.50;99.90;;;;;;4960463;29;20531;-88
2022/01/06 00:44:08;;;;;;;13.07;3.20;;;5.60;99.90;;;;;;4959357;29;20232;-88
2022/01/06 00:46:34;;;;;;;7.68;2.97;;;5.90;99.90;;;;;;4958658;29;20229;-88
2022/01/06 00:49:04;;;;;;;8.10;3.17;;;5.70;99.90;;;;;;4959515;29;20256;-88
2022/01/06 00:51:30;;;;;;;7.38;3.38;;;5.70;99.90;;;;;;4958532;29;20268;-88
2022/01/06 00:53:57;;;;;;;5.50;2.80;;;5.90;99.90;;;;;;4959109;29;20227;-88
2022/01/06 00:56:24;;;;;;;10.80;3.28;;;5.60;99.90;;;;;;4958384;29;20262;-88
2022/01/06 00:58:51;;;;;;;12.93;3.35;;;5.60;99.90;;;;;;4958129;29;20350;-88
2022/01/06 01:01:18;;;;;;;11.75;3.00;;;5.40;99.90;;;;;;4957711;29;20753;-88
2022/01/06 01:03:45;;;;;;;8.35;3.65;;;5.70;99.90;;;;;;4958047;29;20645;-88
2022/01/06 01:06:13;;;;;;;6.68;3.13;;;5.70;99.90;;;;;;4957891;29;20222;-88
2022/01/06 01:08:40;;;;;;;8.82;3.33;;;5.80;99.90;;;;;;4958383;29;20378;-87
2022/01/06 01:11:08;;;;;;;8.48;4.30;;;5.80;99.90;;;;;;4958914;29;20201;-88
2022/01/06 01:13:54;;;;;;;8.55;3.15;;;5.70;99.90;;;;;;4963153;29;20219;-88
2022/01/06 01:16:24;;;;;;;10.98;3.70;;;5.70;99.90;;;;;;4958466;29;20625;-87
2022/01/06 01:18:51;;;;;;;7.13;3.38;;;5.70;99.90;;;;;;4958651;29;20235;-88
2022/01/06 01:21:22;;;;;;;6.13;3.45;;;5.40;99.90;;;;;;4957352;29;20266;-88
2022/01/06 01:23:49;;;;;;;11.35;3.47;;;5.70;99.90;;;;;;4959453;29;20208;-88
2022/01/06 01:26:16;;;;;;;6.97;3.30;;;5.80;99.90;;;;;;4958345;29;20723;-88
2022/01/06 01:28:45;;;;;;;8.52;3.22;;;5.80;99.90;;;;;;4966639;29;20235;-87
2022/01/06 01:31:24;;;;;;;6.18;2.70;;;5.60;99.90;;;;;;4968855;29;20207;-88
2022/01/06 01:33:52;;;;;;;8.30;3.90;;;5.90;99.90;;;;;;4957938;28;20227;-88
2022/01/06 01:36:21;;;;;;;8.57;3.85;;;5.90;99.90;;;;;;4957301;29;20260;-89
2022/01/06 01:38:48;;;;;;;7.18;3.20;;;5.60;99.90;;;;;;4957011;29;20208;-88
2022/01/06 01:41:15;;;;;;;9.60;3.47;;;5.80;99.90;;;;;;4958315;29;20261;-88
2022/01/06 01:43:42;;;;;;;8.25;4.13;;;5.90;99.90;;;;;;4958736;29;20218;-88
2022/01/06 01:46:13;;;;;;;7.10;3.45;;;5.90;99.90;;;;;;4957491;29;20239;-88
2022/01/06 01:48:44;;;;;;;8.20;3.30;;;5.80;99.90;;;;;;4959629;29;20227;-88
2022/01/06 01:51:11;;;;;;;7.93;3.70;;;5.40;99.90;;;;;;4963281;29;20250;-88
2022/01/06 01:53:40;;;;;;;7.88;3.47;;;5.70;99.90;;;;;;4956989;29;20274;-88
2022/01/06 01:56:09;;;;;;;7.90;3.10;;;5.60;99.90;;;;;;4956656;29;20583;-88
2022/01/06 01:58:37;;;;;;;7.85;2.92;;;5.80;99.90;;;;;;4963455;28;20717;-87
2022/01/06 02:01:04;;;;;;;6.13;3.00;;;5.70;99.90;;;;;;4959118;29;20212;-88
2022/01/06 02:03:31;;;;;;;8.25;3.42;;;5.80;99.90;;;;;;4957188;29;20216;-88
2022/01/06 02:05:59;;;;;;;9.95;3.63;;;5.70;99.90;;;;;;4956188;29;20287;-89
2022/01/06 02:08:26;;;;;;;11.43;3.40;;;5.70;99.90;;;;;;4955931;29;20287;-89
2022/01/06 02:11:02;;;;;;;8.13;2.88;;;5.90;99.90;;;;;;4956892;29;20274;-87
2022/01/06 02:13:30;;;;;;;8.43;3.50;;;5.70;99.90;;;;;;4956304;29;20272;-87
2022/01/06 02:15:58;;;;;;;6.47;3.50;;;5.50;99.90;;;;;;4955825;29;20311;-88
2022/01/06 02:18:26;;;;;;;11.00;3.03;;;5.80;99.90;;;;;;4956491;29;20318;-88
2022/01/06 02:20:55;;;;;;;12.80;3.33;;;6.00;99.90;;;;;;4956212;29;20226;-88
2022/01/06 02:23:22;;;;;;;8.02;3.15;;;5.80;99.90;;;;;;4959366;29;20291;-88
2022/01/06 02:25:49;;;;;;;8.90;3.55;;;5.60;99.90;;;;;;4959687;29;20664;-87
2022/01/06 02:28:18;;;;;;;8.95;3.50;;;5.50;99.90;;;;;;4956172;29;20302;-88
2022/01/06 02:30:49;;;;;;;8.65;3.92;;;5.80;99.90;;;;;;4956542;29;20256;-88
2022/01/06 02:33:16;;;;;;;10.40;3.90;;;6.00;99.90;;;;;;4956093;29;20254;-88
2022/01/06 02:35:43;;;;;;;6.10;3.10;;;5.60;99.90;;;;;;4955902;29;20267;-89
2022/01/06 02:38:12;;;;;;;9.38;3.63;;;5.60;99.90;;;;;;4957420;29;20215;-89
2022/01/06 02:40:39;;;;;;;6.68;2.90;;;5.60;99.90;;;;;;4955634;29;20236;-88
2022/01/06 02:43:07;;;;;;;10.93;3.40;;;5.40;99.90;;;;;;4955451;29;20230;-89
2022/01/06 02:45:36;;;;;;;9.10;4.47;;;5.60;99.90;;;;;;4955639;28;20299;-89
2022/01/06 02:48:08;;;;;;;9.82;3.30;;;5.60;99.90;;;;;;4958802;29;20252;-89
2022/01/06 02:50:36;;;;;;;7.82;3.90;;;5.60;99.90;;;;;;4956388;29;20258;-89
2022/01/06 02:53:03;;;;;;;9.50;3.50;;;5.70;99.90;;;;;;4957978;29;20273;-88
2022/01/06 02:55:32;;;;;;;9.55;3.65;;;5.70;99.90;;;;;;4969280;29;20228;-88
2022/01/06 02:57:58;;;;;;;11.23;3.35;;;5.50;99.90;;;;;;4973558;29;20286;-87
2022/01/06 03:00:25;;;;;;;9.15;3.00;;;5.70;99.90;;;;;;4975554;29;20692;-88
2022/01/06 03:02:52;;;;;;;8.02;3.40;;;5.60;99.90;;;;;;4959805;29;20212;-86
2022/01/06 03:05:19;;;;;;;10.40;3.42;;;5.60;99.90;;;;;;4959466;29;20234;-89
2022/01/06 03:07:48;;;;;;;7.28;3.17;;;5.50;99.90;;;;;;4956952;29;20587;-87
2022/01/06 03:10:16;;;;;;;11.25;3.25;;;5.60;99.90;;;;;;4955468;29;20321;-88
2022/01/06 03:12:45;;;;;;;6.88;3.03;;;5.70;99.90;;;;;;4955524;29;20207;-88
2022/01/06 03:15:14;;;;;;;7.72;3.25;;;5.60;99.90;;;;;;4956029;29;20655;-88
2022/01/06 03:17:43;;;;;;;7.07;2.95;;;5.20;99.90;;;;;;4956397;29;20301;-87
2022/01/06 03:20:12;;;;;;;8.38;3.35;;;5.40;99.90;;;;;;4955404;29;20318;-87
2022/01/06 03:22:39;;;;;;;6.10;2.70;;;5.60;99.90;;;;;;4955416;29;20210;-88
2022/01/06 03:25:08;;;;;;;7.15;3.03;;;5.60;99.90;;;;;;4955500;29;20673;-87
2022/01/06 03:27:35;;;;;;;7.03;3.45;;;5.60;99.90;;;;;;4970894;29;20247;-88
2022/01/06 03:30:05;;;;;;;7.57;3.30;;;5.50;99.90;;;;;;4956413;29;20316;-87
2022/01/06 03:32:32;;;;;;;8.40;2.90;;;5.60;99.90;;;;;;4956283;29;20299;-88
2022/01/06 03:34:59;;;;;;;6.57;3.00;;;5.20;99.90;;;;;;4971220;29;20218;-88
2022/01/06 03:37:26;;;;;;;7.85;3.28;;;5.70;99.90;;;;;;4973270;28;20217;-87
2022/01/06 03:39:53;;;;;;;7.50;3.45;;;5.80;99.90;;;;;;4966531;29;20264;-88
2022/01/06 03:42:20;;;;;;;7.93;2.40;;;5.70;99.90;;;;;;4958474;29;20291;-88
2022/01/06 03:44:46;;;;;;;9.07;3.33;;;5.60;99.90;;;;;;4956034;29;20223;-89
2022/01/06 03:47:15;;;;;;;8.82;3.13;;;5.80;99.90;;;;;;4954820;29;20290;-89
2022/01/06 03:49:41;;;;;;;6.65;2.75;;;5.40;99.90;;;;;;4954706;29;20261;-87
2022/01/06 03:52:22;;;;;;;6.13;2.30;;;5.40;99.90;;;;;;4954999;29;20302;-88
2022/01/06 03:54:51;;;;;;;4.80;2.90;;;5.50;99.90;;;;;;4955165;29;20274;-88
2022/01/06 03:57:18;;;;;;;7.68;2.70;;;5.60;99.90;;;;;;4957049;28;20213;-88
2022/01/06 03:59:44;;;;;;;6.90;4.00;;;5.50;99.90;;;;;;4958360;29;20267;-88
2022/01/06 04:02:11;;;;;;;5.88;2.88;;;5.80;99.90;;;;;;4958916;29;20294;-89
2022/01/06 04:04:39;;;;;;;4.95;2.90;;;5.40;99.90;;;;;;4958879;29;20295;-88
2022/01/06 04:07:06;;;;;;;4.30;2.13;;;5.60;99.90;;;;;;4958025;29;20208;-88
2022/01/06 04:09:33;;;;;;;12.10;3.03;;;5.50;99.90;;;;;;4958705;29;20325;-88
2022/01/06 04:12:00;;;;;;;9.60;2.97;;;5.60;99.90;;;;;;4958003;29;20290;-88
2022/01/06 04:14:27;;;;;;;9.70;3.13;;;5.60;99.90;;;;;;4958131;29;20298;-89
2022/01/06 04:16:58;;;;;;;5.65;3.03;;;5.50;99.90;;;;;;4958632;29;20327;-88
2022/01/06 04:19:28;;;;;;;5.28;2.58;;;5.40;99.90;;;;;;4958606;29;20246;-88
2022/01/06 04:24:46;;;;;;;10.30;3.00;;;5.50;99.90;;;;;;4954858;28;20218;-88
2022/01/06 04:27:13;;;;;;;8.35;2.75;;;5.50;99.90;;;;;;4958386;29;20563;-88
2022/01/06 04:29:40;;;;;;;9.57;3.60;;;5.10;99.90;;;;;;4958263;29;20318;-88
2022/01/06 04:32:07;;;;;;;6.32;2.72;;;5.70;99.90;;;;;;4957912;29;20310;-88
2022/01/06 04:34:35;;;;;;;5.72;3.10;;;5.40;99.90;;;;;;4958036;29;20739;-88
2022/01/06 04:37:04;;;;;;;7.75;2.70;;;5.40;99.90;;;;;;4959328;29;20210;-88
2022/01/06 04:39:31;;;;;;;6.47;2.65;;;5.40;99.90;;;;;;4961304;29;20279;-88
2022/01/06 04:41:57;;;;;;;6.43;3.03;;;5.60;99.90;;;;;;4959858;29;20207;-88
2022/01/06 04:44:25;;;;;;;6.15;2.70;;;5.40;99.90;;;;;;4958509;29;20603;-88
2022/01/06 04:46:51;;;;;;;6.35;2.90;;;5.60;99.90;;;;;;4958590;29;20731;-88
2022/01/06 04:49:18;;;;;;;9.88;3.00;;;5.70;99.90;;;;;;4958020;29;20339;-88
2022/01/06 04:51:45;;;;;;;7.50;3.20;;;5.50;99.90;;;;;;4957674;29;20212;-88
2022/01/06 04:54:13;;;;;;;7.53;3.22;;;5.50;99.90;;;;;;4958160;29;20565;-89
2022/01/06 04:56:40;;;;;;;5.20;2.42;;;5.50;99.90;;;;;;4958449;29;20320;-89
2022/01/06 04:59:09;;;;;;;4.93;2.72;;;5.60;99.90;;;;;;4958001;29;20233;-89
2022/01/06 05:01:36;;;;;;;5.20;2.75;;;5.60;99.90;;;;;;4959294;29;20219;-89
2022/01/06 05:04:04;;;;;;;6.80;3.55;;;5.80;99.90;;;;;;4968581;29;20694;-88
2022/01/06 05:06:31;;;;;;;8.82;3.30;;;5.60;99.90;;;;;;4958435;29;20278;-88
2022/01/06 05:08:58;;;;;;;8.07;3.00;;;5.50;99.90;;;;;;4957707;28;20273;-88
2022/01/06 05:11:26;;;;;;;5.45;3.08;;;5.50;99.90;;;;;;4957864;29;20234;-88
2022/01/06 05:13:53;;;;;;;9.23;3.20;;;5.60;99.90;;;;;;4957500;29;20213;-88
2022/01/06 05:16:20;;;;;;;7.22;3.50;;;5.60;99.90;;;;;;4957355;29;20221;-87
2022/01/06 05:18:47;;;;;;;7.78;4.00;;;5.40;99.90;;;;;;4958559;29;20295;-87
2022/01/06 05:21:14;;;;;;;13.00;3.88;;;5.30;99.90;;;;;;4958301;29;20210;-87
2022/01/06 05:23:41;;;;;;;9.60;3.95;;;5.60;99.90;;;;;;4958397;29;20323;-88
2022/01/06 05:26:09;;;;;;;10.25;3.22;;;5.70;99.90;;;;;;4958085;29;20206;-88
2022/01/06 05:28:37;;;;;;;5.95;2.78;;;5.80;99.90;;;;;;4964929;29;20218;-87
2022/01/06 05:31:04;;;;;;;6.78;3.20;;;5.60;99.90;;;;;;4968160;29;20235;-86
2022/01/06 05:33:31;;;;;;;5.03;2.88;;;5.50;99.90;;;;;;4969524;29;20205;-87
2022/01/06 05:35:58;;;;;;;9.48;3.78;;;5.60;99.90;;;;;;4963657;29;20315;-88
2022/01/06 05:38:25;;;;;;;7.00;3.40;;;5.70;99.90;;;;;;4958965;29;20214;-87
2022/01/06 05:40:52;;;;;;;7.20;3.47;;;5.60;99.90;;;;;;4966131;29;20690;-88
2022/01/06 05:43:20;;;;;;;7.50;3.85;;;5.60;99.90;;;;;;4962904;29;20643;-88
2022/01/06 05:45:51;;;;;;;6.32;2.90;;;5.30;99.90;;;;;;4957604;29;20210;-88
2022/01/06 05:48:18;;;;;;;7.78;2.85;;;5.70;99.90;;;;;;4957980;29;20200;-88
2022/01/06 05:50:48;;;;;;;8.90;3.10;;;5.80;99.90;;;;;;4957659;29;20228;-89
2022/01/06 05:53:15;;;;;;;10.93;3.25;;;5.50;99.90;;;;;;4957872;29;20216;-89
2022/01/06 05:55:42;;;;;;;8.18;2.70;;;5.90;99.90;;;;;;4957387;29;20239;-88
2022/01/06 05:58:09;;;;;;;7.30;4.00;;;5.90;99.90;;;;;;4957767;29;20236;-88
2022/01/06 06:00:36;;;;;;;6.13;3.70;;;5.30;99.90;;;;;;4957393;29;20322;-88
2022/01/06 06:03:04;;;;;;;7.53;3.05;;;6.00;99.90;;;;;;4957662;29;20211;-88
2022/01/06 06:05:31;;;;;;;8.38;3.38;;;5.70;99.90;;;;;;4957338;29;20312;-88
2022/01/06 06:07:58;;;;;;;6.32;3.20;;;5.80;99.90;;;;;;4956980;29;20218;-88
2022/01/06 12:12:51;;;;;;;5.65;2.38;;;7.00;99.90;;;;;;4977199;28;20215;-88
2022/01/06 12:15:20;;;;;;;13.00;2.97;;;6.60;99.90;;;;;;4989895;28;20193;-87
2022/01/06 12:17:52;;;;;;;8.35;2.60;;;7.10;99.90;;;;;;4988400;28;20226;-87
2022/01/06 12:20:20;;;;;;;7.93;2.40;;;7.10;99.90;;;;;;4981048;28;20332;-87
2022/01/06 12:22:47;;;;;;;6.40;2.40;;;7.10;99.90;;;;;;4985517;28;20727;-87
2022/01/06 12:25:14;;;;;;;7.68;2.28;;;6.70;99.90;;;;;;4984775;28;20222;-88
2022/01/06 12:27:53;;;;;;;9.15;2.40;;;7.10;99.90;;;;;;4981785;28;20224;-88
2022/01/06 12:30:22;;;;;;;6.93;2.65;;;7.30;99.90;;;;;;4981086;28;20706;-88
2022/01/06 12:32:57;;;;;;;9.85;2.50;;;7.00;99.90;;;;;;4987132;28;20543;-88
2022/01/06 12:35:36;;;;;;;7.10;2.47;;;6.60;99.90;;;;;;4983947;28;20237;-88
2022/01/06 12:38:05;;;;;;;6.90;2.90;;;6.60;99.90;;;;;;4982864;28;20218;-88
2022/01/06 12:40:34;;;;;;;9.57;3.10;;;6.80;99.90;;;;;;4983360;28;20230;-88
2022/01/06 12:43:14;;;;;;;8.35;3.47;;;6.80;99.90;;;;;;4992769;28;20200;-87
2022/01/06 12:45:44;;;;;;;7.97;2.55;;;6.60;99.90;;;;;;4997990;28;20184;-88
2022/01/06 12:48:11;;;;;;;7.50;2.90;;;6.90;99.90;;;;;;4994369;28;20204;-88
2022/01/06 12:50:48;;;;;;;9.98;2.50;;;6.20;99.90;;;;;;4989300;28;20246;-87
2022/01/06 12:53:26;;;;;;;15.18;3.80;;;6.70;99.90;;;;;;4981616;28;20285;-87
2022/01/06 12:55:53;;;;;;;17.65;3.90;;;6.40;99.90;;;;;;4980464;28;20287;-87
2022/01/06 12:58:33;;;;;;;8.20;2.80;;;6.20;99.90;;;;;;4981170;28;20341;-87
2022/01/06 13:01:04;;;;;;;7.50;2.85;;;6.50;99.90;;;;;;4980933;28;20230;-87
2022/01/06 13:03:34;;;;;;;9.00;2.50;;;6.50;99.90;;;;;;4981143;28;20195;-88
2022/01/06 13:06:05;;;;;;;9.75;2.95;;;6.00;99.90;;;;;;4982467;28;20235;-88
2022/01/06 13:08:45;;;;;;;9.75;2.75;;;6.00;99.90;;;;;;4990221;28;20207;-87
2022/01/06 13:11:12;;;;;;;5.45;1.95;;;6.50;99.90;;;;;;4988276;28;20250;-88
2022/01/06 13:13:55;;;;;;;8.25;2.70;;;6.30;99.90;;;;;;4981103;28;20754;-88
2022/01/06 13:16:24;;;;;;;9.63;3.65;;;6.10;99.90;;;;;;4986983;28;20228;-88
2022/01/06 13:18:59;;;;;;;6.53;2.60;;;5.90;99.90;;;;;;4997874;28;20214;-86
2022/01/06 13:21:31;;;;;;;9.73;2.65;;;6.10;99.90;;;;;;4998571;28;20223;-87
2022/01/06 13:24:09;;;;;;;7.68;2.40;;;6.20;99.90;;;;;;4998457;28;20250;-87
2022/01/06 13:26:46;;;;;;;12.48;2.58;;;6.20;99.90;;;;;;4996822;28;20209;-88
2022/01/06 13:29:26;;;;;;;8.60;2.63;;;6.50;99.90;;;;;;4987929;28;20228;-88
2022/01/06 13:32:01;;;;;;;8.25;2.70;;;6.50;99.90;;;;;;4981222;28;20282;-88
2022/01/06 13:34:28;;;;;;;9.95;3.05;;;6.40;99.90;;;;;;4980334;28;20297;-88
2022/01/06 13:37:07;;;;;;;7.13;2.70;;;5.90;99.90;;;;;;4980014;28;20310;-88
2022/01/06 13:39:44;;;;;;;9.43;3.30;;;6.40;99.90;;;;;;4985889;28;20268;-88
2022/01/06 13:42:25;;;;;;;6.20;2.40;;;6.10;99.90;;;;;;4987628;28;20268;-88
2022/01/06 13:45:03;;;;;;;7.13;2.90;;;6.70;99.90;;;;;;4986343;28;20202;-89
2022/01/06 13:47:46;;;;;;;8.57;2.92;;;6.50;99.90;;;;;;4983922;28;20203;-89
2022/01/06 13:52:57;;;;;;;10.18;3.30;;;6.10;99.90;;;;;;4983256;28;20188;-88
2022/01/06 13:55:24;;;;;;;14.35;3.30;;;6.40;99.90;;;;;;4984320;28;20642;-89
2022/01/06 13:57:52;;;;;;;7.25;2.60;;;6.50;99.90;;;;;;4981916;28;20223;-89
2022/01/06 14:00:20;;;;;;;10.20;2.90;;;6.70;99.90;;;;;;4988735;28;20252;-87
2022/01/06 14:02:48;;;;;;;7.47;2.60;;;6.80;99.90;;;;;;4990992;28;20216;-88
2022/01/06 14:05:17;;;;;;;9.93;2.50;;;6.60;99.90;;;;;;4990494;28;20215;-89
2022/01/06 14:07:44;;;;;;;16.50;2.50;;;6.90;99.90;;;;;;4985966;28;20210;-88
2022/01/06 14:10:10;;;;;;;7.40;2.63;;;6.90;99.90;;;;;;4978424;28;20325;-89
2022/01/06 14:12:38;;;;;;;6.55;2.05;;;6.70;99.90;;;;;;4977976;28;20216;-89
2022/01/06 14:15:06;;;;;;;7.60;3.03;;;6.90;99.90;;;;;;4978483;28;20236;-88
2022/01/06 14:17:40;;;;;;;6.50;2.55;;;6.80;99.90;;;;;;4978438;28;20234;-88
2022/01/06 14:20:08;;;;;;;11.68;3.05;;;6.90;99.90;;;;;;4977750;28;20234;-89
2022/01/06 14:22:35;;;;;;;9.18;3.15;;;6.80;99.90;;;;;;4987079;28;20251;-88
2022/01/06 14:25:02;;;;;;;10.05;3.08;;;6.80;99.90;;;;;;4983266;28;20231;-87
2022/01/06 14:27:29;;;;;;;11.80;3.65;;;6.60;99.90;;;;;;4996423;28;20238;-86
2022/01/06 14:29:56;;;;;;;7.78;2.40;;;6.80;99.90;;;;;;4984043;28;20350;-88
2022/01/06 14:32:23;;;;;;;6.75;3.20;;;6.60;99.90;;;;;;4979234;28;20302;-87
2022/01/06 14:34:51;;;;;;;11.68;2.80;;;6.70;99.90;;;;;;4979479;28;20211;-88
2022/01/06 14:37:18;;;;;;;6.72;2.60;;;6.80;99.90;;;;;;4981507;28;20255;-89
2022/01/06 14:39:45;;;;;;;9.10;2.70;;;7.00;99.90;;;;;;4979838;28;20243;-88
2022/01/06 14:42:11;;;;;;;6.32;2.42;;;7.10;99.90;;;;;;4978218;28;20216;-87
2022/01/06 14:44:38;;;;;;;7.10;2.38;;;7.20;99.90;;;;;;4977879;28;20310;-87
2022/01/06 14:47:05;;;;;;;7.45;2.40;;;6.90;99.90;;;;;;4978077;28;20239;-87
2022/01/06 14:49:32;;;;;;;5.97;2.50;;;6.70;99.90;;;;;;4979355;28;20274;-87
2022/01/06 14:52:00;;;;;;;7.45;2.13;;;6.40;99.90;;;;;;4977773;28;20432;-88
2022/01/06 14:54:28;;;;;;;6.18;2.35;;;7.00;99.90;;;;;;4979105;28;20644;-87
2022/01/06 14:56:54;;;;;;;4.50;2.17;;;7.00;99.90;;;;;;4980390;28;20234;-88
2022/01/06 14:59:23;;;;;;;8.25;2.55;;;6.90;99.90;;;;;;4981918;28;20249;-88
2022/01/06 15:01:50;;;;;;;7.95;3.25;;;6.70;99.90;;;;;;4991110;28;20211;-88
2022/01/06 15:04:17;;;;;;;11.73;3.95;;;6.80;99.90;;;;;;4986595;28;20215;-88
2022/01/06 15:06:44;;;;;;;7.90;2.72;;;6.40;99.90;;;;;;4979388;28;20216;-88
2022/01/06 15:09:13;;;;;;;9.13;2.50;;;6.70;99.90;;;;;;4980401;28;20238;-88
2022/01/06 15:11:39;;;;;;;7.30;2.63;;;6.70;99.90;;;;;;4978069;28;20313;-88
2022/01/06 15:14:06;;;;;;;12.82;3.45;;;7.00;99.90;;;;;;4978714;28;20235;-88
2022/01/06 15:16:34;;;;;;;8.05;2.90;;;7.00;99.90;;;;;;4979593;28;20271;-89
2022/01/06 15:19:01;;;;;;;10.02;2.97;;;6.70;99.90;;;;;;4987195;28;20303;-88
2022/01/06 15:21:30;;;;;;;9.18;2.67;;;6.80;99.90;;;;;;4977648;28;20664;-88
2022/01/06 15:24:06;;;;;;;10.77;3.00;;;6.40;99.90;;;;;;4978790;28;20216;-88
2022/01/06 15:26:35;;;;;;;8.73;2.65;;;6.60;99.90;;;;;;4978269;28;20217;-88
2022/01/06 15:29:04;;;;;;;13.80;2.97;;;7.00;99.90;;;;;;4977739;28;20207;-88
2022/01/06 15:31:31;;;;;;;9.18;2.70;;;7.00;99.90;;;;;;4978298;28;20266;-88
2022/01/06 15:33:58;;;;;;;7.07;3.13;;;6.50;99.90;;;;;;4978664;28;20646;-88
2022/01/06 15:36:25;;;;;;;10.77;3.20;;;6.90;99.90;;;;;;4981009;28;20215;-88
2022/01/06 15:38:56;;;;;;;9.70;2.60;;;7.00;99.90;;;;;;4983446;28;20265;-88
2022/01/06 15:41:23;;;;;;;8.70;2.42;;;6.90;99.90;;;;;;4981705;28;20234;-89
2022/01/06 15:43:53;;;;;;;8.60;2.55;;;6.90;99.90;;;;;;4986287;28;20282;-89
2022/01/06 15:46:21;;;;;;;10.02;3.03;;;6.80;99.90;;;;;;4991591;28;20208;-89
2022/01/06 15:48:47;;;;;;;16.13;3.65;;;6.80;99.90;;;;;;4988815;28;20233;-88
2022/01/06 15:51:15;;;;;;;10.35;3.28;;;6.50;99.90;;;;;;4978307;28;20231;-89
2022/01/06 15:53:42;;;;;;;11.02;3.47;;;6.60;99.90;;;;;;4983078;28;20213;-89
2022/01/06 15:56:09;;;;;;;8.95;2.83;;;6.50;99.90;;;;;;4982627;28;20628;-89
2022/01/06 15:58:36;;;;;;;6.95;2.72;;;6.20;99.90;;;;;;4981544;28;20561;-88
2022/01/06 16:06:35;;;;;;;9.25;3.40;;;6.10;99.90;;;;;;4994809;28;20197;-88
2022/01/06 16:09:02;;;;;;;9.75;3.88;;;5.90;99.90;;;;;;4999746;28;20274;-87
2022/01/06 16:11:30;;;;;;;10.10;3.33;;;6.40;99.90;;;;;;4996400;28;20254;-88
2022/01/06 16:14:05;;;;;;;7.60;3.35;;;6.30;99.90;;;;;;4983251;28;20230;-88
2022/01/06 16:16:34;;;;;;;10.82;3.60;;;5.60;99.90;;;;;;4980940;28;20218;-88
2022/01/06 16:19:03;;;;;;;10.20;3.53;;;5.40;99.90;;;;;;4982781;28;20265;-88
2022/01/06 16:21:30;;;;;;;8.60;4.75;;;6.10;99.90;;;;;;4982160;28;20247;-88
2022/01/06 16:23:57;;;;;;;7.90;4.00;;;5.60;99.90;;;;;;4981828;28;20215;-88
2022/01/06 16:26:26;;;;;;;8.75;3.85;;;6.00;99.90;;;;;;4982222;28;20237;-87
2022/01/06 16:28:54;;;;;;;11.20;3.78;;;6.00;99.90;;;;;;4981073;28;20277;-87
2022/01/06 16:31:41;;;;;;;12.35;3.70;;;5.90;99.90;;;;;;4980464;28;20293;-87
2022/01/06 16:34:11;;;;;;;8.93;3.80;;;5.90;99.90;;;;;;4982444;28;20195;-88
2022/01/06 16:36:38;;;;;;;12.05;4.25;;;5.40;99.90;;;;;;4981278;28;20346;-87
2022/01/06 16:39:06;;;;;;;15.25;5.43;;;5.30;99.90;;;;;;4982351;28;20223;-88
2022/01/06 16:41:33;;;;;;;14.95;4.55;;;5.60;99.90;;;;;;4994822;28;20241;-88
2022/01/06 16:44:01;;;;;;;9.77;4.25;;;5.20;99.90;;;;;;4988206;28;20211;-88
2022/01/06 16:46:31;;;;;;;14.43;4.78;;;5.50;99.90;;;;;;4991203;28;20242;-88
2022/01/06 16:49:07;;;;;;;9.20;3.80;;;5.50;99.90;;;;;;4993848;28;20202;-88
2022/01/06 16:51:37;;;;;;;12.13;4.75;;;5.40;99.90;;;;;;4992270;28;20329;-88
2022/01/06 16:54:05;;;;;;;13.45;5.43;;;5.20;99.90;;;;;;4982535;28;20214;-88
2022/01/06 16:56:32;;;;;;;12.20;4.70;;;4.70;99.90;;;;;;4979996;28;20214;-88
2022/01/06 16:58:59;;;;;;;10.80;5.20;;;5.00;99.90;;;;;;4993404;28;20240;-87
2022/01/06 17:01:27;;;;;;;10.18;3.80;;;4.60;99.90;;;;;;4982266;28;20302;-87
2022/01/06 17:03:54;;;;;;;9.88;4.25;;;5.10;99.90;;;;;;4980098;28;20231;-88
2022/01/06 17:06:25;;;;;;;9.20;3.70;;;5.10;99.90;;;;;;4981643;28;20211;-88
2022/01/06 17:08:51;;;;;;;10.88;3.95;;;5.10;99.90;;;;;;4980857;28;20290;-88
2022/01/06 17:11:19;;;;;;;13.43;4.50;;;4.90;99.90;;;;;;4980064;28;20245;-88
2022/01/06 17:13:49;;;;;;;13.60;3.63;;;5.10;99.90;;;;;;4983627;28;20634;-88
2022/01/06 17:16:22;;;;;;;10.45;4.88;;;4.80;99.90;;;;;;4993208;28;20214;-88
2022/01/06 17:18:49;;;;;;;15.63;5.32;;;5.00;99.90;;;;;;4980758;28;20303;-88
2022/01/06 17:21:16;;;;;;;10.05;5.15;;;4.60;99.90;;;;;;4985310;28;20292;-89
2022/01/06 17:23:45;;;;;;;18.33;6.63;;;4.80;99.90;;;;;;4991725;28;20242;-88
2022/01/06 17:26:14;;;;;;;16.67;6.55;;;4.70;99.90;;;;;;4978358;28;20245;-88
2022/01/06 17:28:41;;;;;;;17.13;6.75;;;4.70;99.90;;;;;;4979260;28;20592;-88
2022/01/06 17:31:09;;;;;;;15.55;6.45;;;4.70;99.90;;;;;;4979039;28;20324;-88
2022/01/06 17:33:39;;;;;;;9.77;5.45;;;4.50;99.90;;;;;;4979926;28;20219;-88
2022/01/06 17:36:07;;;;;;;10.32;5.10;;;4.60;99.90;;;;;;4978638;28;20209;-88
2022/01/06 17:38:34;;;;;;;11.05;5.70;;;4.40;99.90;;;;;;4979327;28;20228;-88
2022/01/06 17:41:02;;;;;;;16.98;5.45;;;3.90;99.90;;;;;;4980406;28;20242;-88
2022/01/06 17:43:29;;;;;;;13.50;6.53;;;4.10;99.90;;;;;;4980357;28;20214;-87
2022/01/06 17:45:56;;;;;;;17.00;7.40;;;4.10;99.90;;;;;;4980445;28;20296;-88
2022/01/06 17:48:23;;;;;;;15.90;7.85;;;4.00;99.90;;;;;;4980001;28;20245;-88
2022/01/06 17:50:50;;;;;;;16.85;5.93;;;4.10;99.90;;;;;;4983722;28;20257;-87
2022/01/06 17:53:20;;;;;;;12.85;5.82;;;4.20;99.90;;;;;;4990085;28;20216;-87
2022/01/06 17:55:46;;;;;;;14.20;6.70;;;3.80;99.90;;;;;;4978257;28;20212;-88
2022/01/06 17:58:15;;;;;;;13.02;7.10;;;4.10;99.90;;;;;;4981598;28;20285;-88
2022/01/06 18:00:42;;;;;;;12.95;7.13;;;4.10;99.90;;;;;;4980526;28;20238;-88
2022/01/06 18:03:12;;;;;;;17.02;6.80;;;4.20;99.90;;;;;;4980023;28;20217;-87
2022/01/06 18:05:41;;;;;;;12.07;6.25;;;4.10;99.90;;;;;;4979633;28;20238;-88
2022/01/06 18:08:36;;;;;;;13.05;7.00;;;4.10;99.90;;;;;;4993140;28;20258;-87
2022/01/06 18:11:20;;;;;;;18.83;7.45;;;4.10;99.90;;;;;;5015407;23;21299;-89
2022/01/06 18:13:53;;;;;;;16.88;8.18;;;3.70;99.90;;;;;;5006764;28;20215;-90
2022/01/06 18:16:24;;;;;;;13.68;7.78;;;3.60;99.90;;;;;;5017229;28;20200;-88
2022/01/06 18:18:51;;;;;;;14.32;7.45;;;3.50;99.90;;;;;;5009391;28;20230;-89
2022/01/06 18:21:18;;;;;;;16.30;7.53;;;4.00;99.90;;;;;;5016226;28;20257;-88
2022/01/06 18:23:45;;;;;;;10.23;7.20;;;3.90;99.90;;;;;;5008797;28;20278;-88
2022/01/06 18:26:13;;;;;;;16.85;9.50;;;3.60;99.90;;;;;;5003900;28;20205;-89
2022/01/06 18:28:40;;;;;;;16.90;7.45;;;4.00;99.90;;;;;;5007147;28;20213;-88
2022/01/06 18:31:09;;;;;;;14.93;7.32;;;3.90;99.90;;;;;;5009439;28;20256;-89
2022/01/06 18:33:41;;;;;;;14.27;6.95;;;3.80;99.90;;;;;;5010430;28;20212;-88
2022/01/06 18:36:11;;;;;;;17.65;6.65;;;3.80;99.90;;;;;;5010497;28;20197;-89
2022/01/06 18:38:38;;;;;;;12.80;6.80;;;3.70;99.90;;;;;;5013568;28;20236;-88
2022/01/06 18:41:05;;;;;;;10.20;6.65;;;4.00;99.90;;;;;;5006477;28;20229;-88
2022/01/06 18:43:33;;;;;;;14.75;7.45;;;3.70;99.90;;;;;;5017285;28;20260;-89
2022/01/06 18:46:00;;;;;;;13.75;7.07;;;3.80;99.90;;;;;;5017526;28;20189;-89
2022/01/06 18:48:29;;;;;;;15.13;6.88;;;3.70;99.90;;;;;;5002101;28;20209;-91
2022/01/06 18:50:58;;;;;;;15.70;7.50;;;3.20;99.90;;;;;;5010687;28;20327;-89
2022/01/06 18:53:26;;;;;;;21.90;8.18;;;3.70;99.90;;;;;;5006688;28;20209;-88
2022/01/06 18:55:53;;;;;;;15.43;7.57;;;3.80;99.90;;;;;;5004354;28;20500;-89
2022/01/06 18:58:24;;;;;;;16.00;9.57;;;3.20;99.90;;;;;;5010574;28;20221;-88
2022/01/06 19:00:51;;;;;;;14.70;7.55;;;3.50;99.90;;;;;;5004527;28;20624;-89
2022/01/06 19:03:19;;;;;;;21.48;10.07;;;3.20;99.90;;;;;;5004030;28;20208;-88
2022/01/06 19:05:48;;;;;;;16.63;9.20;;;3.20;99.90;;;;;;5007885;28;20224;-89
2022/01/06 19:08:14;;;;;;;18.13;9.18;;;3.60;99.90;;;;;;5006890;28;20209;-89
2022/01/06 19:10:42;;;;;;;12.95;8.45;;;3.30;99.90;;;;;;5006398;28;20243;-89
2022/01/06 19:13:09;;;;;;;16.13;8.20;;;3.10;99.90;;;;;;5006100;28;20216;-89
2022/01/06 19:15:37;;;;;;;17.27;8.32;;;3.40;99.90;;;;;;5001333;28;20576;-89
2022/01/06 19:18:04;;;;;;;18.45;8.07;;;3.30;99.90;;;;;;5001060;28;20240;-89
2022/01/06 19:20:32;;;;;;;17.17;8.23;;;3.30;99.90;;;;;;5000098;28;20572;-89